sensor_id;sensor_type;location;lat;lon;timestamp;P1;durP1;ratioP1;P2;durP2;ratioP2
21800;SDS011;11062;51.164;16.924;2023-04-21T00:00:48;310.33;;;101.88;;
21800;SDS011;11062;51.164;16.924;2023-04-21T00:03:14;322.55;;;104.65;;
21800;SDS011;11062;51.164;16.924;2023-04-21T00:05:41;316.80;;;103.50;;
21800;SDS011;11062;51.164;16.924;2023-04-21T00:08:07;310.13;;;98.63;;
21800;SDS011;11062;51.164;16.924;2023-04-21T00:10:34;307.63;;;103.70;;
21800;SDS011;11062;51.164;16.924;2023-04-21T00:13:00;290.17;;;95.72;;
21800;SDS011;11062;51.164;16.924;2023-04-21T00:15:26;323.20;;;106.55;;
21800;SDS011;11062;51.164;16.924;2023-04-21T00:17:52;310.90;;;102.25;;
21800;SDS011;11062;51.164;16.924;2023-04-21T00:20:17;318.23;;;103.15;;
21800;SDS011;11062;51.164;16.924;2023-04-21T00:22:44;302.05;;;98.88;;
21800;SDS011;11062;51.164;16.924;2023-04-21T00:25:10;303.88;;;100.50;;
21800;SDS011;11062;51.164;16.924;2023-04-21T00:27:36;319.23;;;103.93;;
21800;SDS011;11062;51.164;16.924;2023-04-21T00:30:02;309.60;;;102.35;;
21800;SDS011;11062;51.164;16.924;2023-04-21T00:32:28;325.02;;;118.95;;
21800;SDS011;11062;51.164;16.924;2023-04-21T00:34:55;345.48;;;141.05;;
21800;SDS011;11062;51.164;16.924;2023-04-21T00:37:21;337.10;;;139.25;;
21800;SDS011;11062;51.164;16.924;2023-04-21T00:39:47;352.30;;;131.68;;
21800;SDS011;11062;51.164;16.924;2023-04-21T00:42:16;345.73;;;131.40;;
21800;SDS011;11062;51.164;16.924;2023-04-21T00:44:42;318.05;;;114.55;;
21800;SDS011;11062;51.164;16.924;2023-04-21T00:47:08;345.48;;;138.10;;
21800;SDS011;11062;51.164;16.924;2023-04-21T00:49:34;325.58;;;109.25;;
21800;SDS011;11062;51.164;16.924;2023-04-21T00:52:00;338.58;;;116.28;;
21800;SDS011;11062;51.164;16.924;2023-04-21T00:54:27;321.88;;;112.60;;
21800;SDS011;11062;51.164;16.924;2023-04-21T00:56:53;331.00;;;118.80;;
21800;SDS011;11062;51.164;16.924;2023-04-21T00:59:22;324.35;;;114.97;;
21800;SDS011;11062;51.164;16.924;2023-04-21T01:01:49;352.48;;;139.93;;
21800;SDS011;11062;51.164;16.924;2023-04-21T01:04:17;312.75;;;110.70;;
21800;SDS011;11062;51.164;16.924;2023-04-21T01:06:45;295.00;;;97.57;;
21800;SDS011;11062;51.164;16.924;2023-04-21T01:09:11;324.48;;;123.97;;
21800;SDS011;11062;51.164;16.924;2023-04-21T01:11:38;325.73;;;135.52;;
21800;SDS011;11062;51.164;16.924;2023-04-21T01:14:04;343.33;;;135.48;;
21800;SDS011;11062;51.164;16.924;2023-04-21T01:16:30;361.20;;;177.77;;
21800;SDS011;11062;51.164;16.924;2023-04-21T01:18:58;345.88;;;153.70;;
21800;SDS011;11062;51.164;16.924;2023-04-21T01:21:24;322.65;;;118.63;;
21800;SDS011;11062;51.164;16.924;2023-04-21T01:23:56;341.63;;;141.77;;
21800;SDS011;11062;51.164;16.924;2023-04-21T01:26:22;339.58;;;125.50;;
21800;SDS011;11062;51.164;16.924;2023-04-21T01:28:48;360.25;;;174.30;;
21800;SDS011;11062;51.164;16.924;2023-04-21T01:31:15;310.90;;;116.25;;
21800;SDS011;11062;51.164;16.924;2023-04-21T01:33:41;305.60;;;108.25;;
21800;SDS011;11062;51.164;16.924;2023-04-21T01:36:08;352.00;;;161.20;;
21800;SDS011;11062;51.164;16.924;2023-04-21T01:38:36;356.85;;;160.68;;
21800;SDS011;11062;51.164;16.924;2023-04-21T01:41:03;319.50;;;119.07;;
21800;SDS011;11062;51.164;16.924;2023-04-21T01:43:29;337.85;;;128.48;;
21800;SDS011;11062;51.164;16.924;2023-04-21T01:45:55;309.60;;;108.30;;
21800;SDS011;11062;51.164;16.924;2023-04-21T01:48:21;300.10;;;118.88;;
21800;SDS011;11062;51.164;16.924;2023-04-21T01:50:47;308.33;;;103.05;;
21800;SDS011;11062;51.164;16.924;2023-04-21T01:53:14;312.85;;;113.05;;
21800;SDS011;11062;51.164;16.924;2023-04-21T01:55:40;329.33;;;150.35;;
21800;SDS011;11062;51.164;16.924;2023-04-21T01:58:06;371.52;;;204.50;;
21800;SDS011;11062;51.164;16.924;2023-04-21T02:00:32;359.27;;;166.15;;
21800;SDS011;11062;51.164;16.924;2023-04-21T02:02:58;413.55;;;234.00;;
21800;SDS011;11062;51.164;16.924;2023-04-21T02:05:24;371.20;;;215.93;;
21800;SDS011;11062;51.164;16.924;2023-04-21T02:07:50;394.75;;;228.60;;
21800;SDS011;11062;51.164;16.924;2023-04-21T02:10:16;370.10;;;202.23;;
21800;SDS011;11062;51.164;16.924;2023-04-21T02:12:42;305.10;;;106.40;;
21800;SDS011;11062;51.164;16.924;2023-04-21T02:15:09;300.30;;;99.95;;
21800;SDS011;11062;51.164;16.924;2023-04-21T02:17:35;282.25;;;95.93;;
21800;SDS011;11062;51.164;16.924;2023-04-21T02:20:01;297.73;;;99.68;;
21800;SDS011;11062;51.164;16.924;2023-04-21T02:22:28;293.98;;;100.35;;
21800;SDS011;11062;51.164;16.924;2023-04-21T02:24:54;294.45;;;99.32;;
21800;SDS011;11062;51.164;16.924;2023-04-21T02:27:20;300.60;;;98.65;;
21800;SDS011;11062;51.164;16.924;2023-04-21T02:29:46;291.90;;;96.07;;
21800;SDS011;11062;51.164;16.924;2023-04-21T02:32:12;296.73;;;94.85;;
21800;SDS011;11062;51.164;16.924;2023-04-21T02:34:38;300.02;;;96.47;;
21800;SDS011;11062;51.164;16.924;2023-04-21T02:37:06;295.58;;;95.85;;
21800;SDS011;11062;51.164;16.924;2023-04-21T02:39:32;287.40;;;95.43;;
21800;SDS011;11062;51.164;16.924;2023-04-21T02:41:58;292.98;;;94.97;;
21800;SDS011;11062;51.164;16.924;2023-04-21T02:44:25;283.08;;;93.82;;
21800;SDS011;11062;51.164;16.924;2023-04-21T02:46:51;275.50;;;97.85;;
21800;SDS011;11062;51.164;16.924;2023-04-21T02:49:17;286.60;;;93.63;;
21800;SDS011;11062;51.164;16.924;2023-04-21T02:51:43;288.13;;;93.07;;
21800;SDS011;11062;51.164;16.924;2023-04-21T02:54:09;307.20;;;99.22;;
21800;SDS011;11062;51.164;16.924;2023-04-21T02:56:35;284.45;;;97.05;;
21800;SDS011;11062;51.164;16.924;2023-04-21T02:59:01;278.75;;;95.53;;
21800;SDS011;11062;51.164;16.924;2023-04-21T03:01:27;305.85;;;96.90;;
21800;SDS011;11062;51.164;16.924;2023-04-21T03:03:56;291.38;;;94.97;;
21800;SDS011;11062;51.164;16.924;2023-04-21T03:06:22;293.75;;;95.80;;
21800;SDS011;11062;51.164;16.924;2023-04-21T03:08:48;282.02;;;94.82;;
21800;SDS011;11062;51.164;16.924;2023-04-21T03:11:14;292.02;;;94.78;;
21800;SDS011;11062;51.164;16.924;2023-04-21T03:13:40;290.35;;;94.18;;
21800;SDS011;11062;51.164;16.924;2023-04-21T03:16:06;279.25;;;93.03;;
21800;SDS011;11062;51.164;16.924;2023-04-21T03:18:35;282.05;;;93.97;;
21800;SDS011;11062;51.164;16.924;2023-04-21T03:21:01;279.05;;;92.75;;
21800;SDS011;11062;51.164;16.924;2023-04-21T03:23:27;282.17;;;92.30;;
21800;SDS011;11062;51.164;16.924;2023-04-21T03:25:52;303.48;;;93.88;;
21800;SDS011;11062;51.164;16.924;2023-04-21T03:28:18;304.05;;;95.13;;
21800;SDS011;11062;51.164;16.924;2023-04-21T03:30:44;320.13;;;95.03;;
21800;SDS011;11062;51.164;16.924;2023-04-21T03:33:11;298.25;;;93.05;;
21800;SDS011;11062;51.164;16.924;2023-04-21T03:35:37;316.73;;;97.55;;
21800;SDS011;11062;51.164;16.924;2023-04-21T03:38:03;307.40;;;102.85;;
21800;SDS011;11062;51.164;16.924;2023-04-21T03:40:29;304.15;;;97.80;;
21800;SDS011;11062;51.164;16.924;2023-04-21T03:42:55;305.10;;;96.28;;
21800;SDS011;11062;51.164;16.924;2023-04-21T03:45:21;303.85;;;99.00;;
21800;SDS011;11062;51.164;16.924;2023-04-21T03:47:51;295.73;;;95.65;;
21800;SDS011;11062;51.164;16.924;2023-04-21T03:50:18;320.25;;;100.30;;
21800;SDS011;11062;51.164;16.924;2023-04-21T03:52:44;297.60;;;95.53;;
21800;SDS011;11062;51.164;16.924;2023-04-21T03:55:10;295.08;;;95.63;;
21800;SDS011;11062;51.164;16.924;2023-04-21T03:57:39;293.17;;;95.35;;
21800;SDS011;11062;51.164;16.924;2023-04-21T04:00:09;404.55;;;243.45;;
21800;SDS011;11062;51.164;16.924;2023-04-21T04:02:35;325.98;;;124.13;;
21800;SDS011;11062;51.164;16.924;2023-04-21T04:05:04;430.25;;;293.25;;
21800;SDS011;11062;51.164;16.924;2023-04-21T04:07:31;419.73;;;258.38;;
21800;SDS011;11062;51.164;16.924;2023-04-21T04:09:57;368.70;;;172.65;;
21800;SDS011;11062;51.164;16.924;2023-04-21T04:12:23;423.45;;;249.90;;
21800;SDS011;11062;51.164;16.924;2023-04-21T04:14:49;348.63;;;154.05;;
21800;SDS011;11062;51.164;16.924;2023-04-21T04:17:15;332.58;;;140.50;;
21800;SDS011;11062;51.164;16.924;2023-04-21T04:19:41;353.70;;;169.25;;
21800;SDS011;11062;51.164;16.924;2023-04-21T04:22:07;329.88;;;147.38;;
21800;SDS011;11062;51.164;16.924;2023-04-21T04:24:33;353.90;;;155.90;;
21800;SDS011;11062;51.164;16.924;2023-04-21T04:27:00;357.70;;;162.68;;
21800;SDS011;11062;51.164;16.924;2023-04-21T04:29:27;307.05;;;124.40;;
21800;SDS011;11062;51.164;16.924;2023-04-21T04:31:53;317.38;;;120.45;;
21800;SDS011;11062;51.164;16.924;2023-04-21T04:34:20;326.90;;;165.70;;
21800;SDS011;11062;51.164;16.924;2023-04-21T04:36:47;334.10;;;140.50;;
21800;SDS011;11062;51.164;16.924;2023-04-21T04:39:14;335.95;;;139.38;;
21800;SDS011;11062;51.164;16.924;2023-04-21T04:41:40;304.48;;;119.53;;
21800;SDS011;11062;51.164;16.924;2023-04-21T04:44:06;333.30;;;133.55;;
21800;SDS011;11062;51.164;16.924;2023-04-21T04:46:33;340.17;;;137.90;;
21800;SDS011;11062;51.164;16.924;2023-04-21T04:48:59;364.40;;;182.38;;
21800;SDS011;11062;51.164;16.924;2023-04-21T04:51:26;346.00;;;146.90;;
21800;SDS011;11062;51.164;16.924;2023-04-21T04:53:52;342.13;;;162.70;;
21800;SDS011;11062;51.164;16.924;2023-04-21T04:56:17;369.77;;;164.02;;
21800;SDS011;11062;51.164;16.924;2023-04-21T04:58:43;309.27;;;116.15;;
21800;SDS011;11062;51.164;16.924;2023-04-21T05:01:12;360.75;;;143.43;;
21800;SDS011;11062;51.164;16.924;2023-04-21T05:03:39;376.17;;;172.90;;
21800;SDS011;11062;51.164;16.924;2023-04-21T05:06:04;312.95;;;123.40;;
21800;SDS011;11062;51.164;16.924;2023-04-21T05:08:30;330.50;;;124.32;;
21800;SDS011;11062;51.164;16.924;2023-04-21T05:10:56;329.77;;;122.18;;
21800;SDS011;11062;51.164;16.924;2023-04-21T05:13:22;415.65;;;191.35;;
21800;SDS011;11062;51.164;16.924;2023-04-21T05:15:48;345.67;;;118.38;;
21800;SDS011;11062;51.164;16.924;2023-04-21T05:18:14;342.70;;;119.47;;
21800;SDS011;11062;51.164;16.924;2023-04-21T05:20:40;334.50;;;129.60;;
21800;SDS011;11062;51.164;16.924;2023-04-21T05:23:06;332.20;;;114.90;;
21800;SDS011;11062;51.164;16.924;2023-04-21T05:25:32;357.65;;;112.97;;
21800;SDS011;11062;51.164;16.924;2023-04-21T05:27:58;348.63;;;136.15;;
21800;SDS011;11062;51.164;16.924;2023-04-21T05:30:24;326.58;;;117.50;;
21800;SDS011;11062;51.164;16.924;2023-04-21T05:32:50;340.25;;;110.90;;
21800;SDS011;11062;51.164;16.924;2023-04-21T05:35:16;328.15;;;110.53;;
21800;SDS011;11062;51.164;16.924;2023-04-21T05:37:41;366.70;;;120.40;;
21800;SDS011;11062;51.164;16.924;2023-04-21T05:40:07;388.58;;;208.90;;
21800;SDS011;11062;51.164;16.924;2023-04-21T05:42:33;404.35;;;230.27;;
21800;SDS011;11062;51.164;16.924;2023-04-21T05:44:59;413.25;;;248.35;;
21800;SDS011;11062;51.164;16.924;2023-04-21T05:47:25;423.02;;;256.75;;
21800;SDS011;11062;51.164;16.924;2023-04-21T05:49:51;385.83;;;194.13;;
21800;SDS011;11062;51.164;16.924;2023-04-21T05:52:18;385.17;;;160.35;;
21800;SDS011;11062;51.164;16.924;2023-04-21T05:54:45;372.83;;;182.35;;
21800;SDS011;11062;51.164;16.924;2023-04-21T05:57:11;336.88;;;132.30;;
21800;SDS011;11062;51.164;16.924;2023-04-21T05:59:37;343.73;;;121.60;;
21800;SDS011;11062;51.164;16.924;2023-04-21T06:02:03;367.92;;;139.13;;
21800;SDS011;11062;51.164;16.924;2023-04-21T06:04:29;398.02;;;223.52;;
21800;SDS011;11062;51.164;16.924;2023-04-21T06:06:55;402.92;;;199.85;;
21800;SDS011;11062;51.164;16.924;2023-04-21T06:09:21;446.13;;;297.52;;
21800;SDS011;11062;51.164;16.924;2023-04-21T06:11:46;384.88;;;162.50;;
21800;SDS011;11062;51.164;16.924;2023-04-21T06:14:14;441.58;;;230.18;;
21800;SDS011;11062;51.164;16.924;2023-04-21T06:16:40;429.25;;;227.27;;
21800;SDS011;11062;51.164;16.924;2023-04-21T06:19:06;362.95;;;149.60;;
21800;SDS011;11062;51.164;16.924;2023-04-21T06:21:32;325.20;;;105.13;;
21800;SDS011;11062;51.164;16.924;2023-04-21T06:23:57;372.23;;;190.98;;
21800;SDS011;11062;51.164;16.924;2023-04-21T06:26:23;368.30;;;178.20;;
21800;SDS011;11062;51.164;16.924;2023-04-21T06:28:49;380.48;;;157.77;;
21800;SDS011;11062;51.164;16.924;2023-04-21T06:31:15;355.60;;;167.05;;
21800;SDS011;11062;51.164;16.924;2023-04-21T06:33:41;336.73;;;131.73;;
21800;SDS011;11062;51.164;16.924;2023-04-21T06:36:07;340.77;;;134.50;;
21800;SDS011;11062;51.164;16.924;2023-04-21T06:38:33;381.50;;;178.95;;
21800;SDS011;11062;51.164;16.924;2023-04-21T06:40:59;375.92;;;176.93;;
21800;SDS011;11062;51.164;16.924;2023-04-21T06:43:26;418.73;;;231.68;;
21800;SDS011;11062;51.164;16.924;2023-04-21T06:45:52;434.58;;;278.75;;
21800;SDS011;11062;51.164;16.924;2023-04-21T06:48:18;421.75;;;255.38;;
21800;SDS011;11062;51.164;16.924;2023-04-21T06:50:43;388.98;;;205.18;;
21800;SDS011;11062;51.164;16.924;2023-04-21T06:53:10;442.25;;;284.48;;
21800;SDS011;11062;51.164;16.924;2023-04-21T06:55:36;355.33;;;167.70;;
21800;SDS011;11062;51.164;16.924;2023-04-21T06:58:02;366.23;;;153.88;;
21800;SDS011;11062;51.164;16.924;2023-04-21T07:00:28;381.20;;;202.60;;
21800;SDS011;11062;51.164;16.924;2023-04-21T07:02:53;361.15;;;180.52;;
21800;SDS011;11062;51.164;16.924;2023-04-21T07:05:19;356.20;;;185.52;;
21800;SDS011;11062;51.164;16.924;2023-04-21T07:07:45;342.05;;;151.93;;
21800;SDS011;11062;51.164;16.924;2023-04-21T07:10:11;361.88;;;173.70;;
21800;SDS011;11062;51.164;16.924;2023-04-21T07:12:37;333.50;;;135.32;;
21800;SDS011;11062;51.164;16.924;2023-04-21T07:15:02;405.10;;;231.52;;
21800;SDS011;11062;51.164;16.924;2023-04-21T07:17:29;339.73;;;133.13;;
21800;SDS011;11062;51.164;16.924;2023-04-21T07:19:55;359.00;;;140.70;;
21800;SDS011;11062;51.164;16.924;2023-04-21T07:22:21;327.25;;;120.68;;
21800;SDS011;11062;51.164;16.924;2023-04-21T07:24:47;349.77;;;137.18;;
21800;SDS011;11062;51.164;16.924;2023-04-21T07:27:12;403.65;;;212.50;;
21800;SDS011;11062;51.164;16.924;2023-04-21T07:29:38;356.95;;;129.18;;
21800;SDS011;11062;51.164;16.924;2023-04-21T07:32:04;414.33;;;142.15;;
21800;SDS011;11062;51.164;16.924;2023-04-21T07:34:30;395.70;;;155.70;;
21800;SDS011;11062;51.164;16.924;2023-04-21T07:36:56;390.92;;;164.05;;
21800;SDS011;11062;51.164;16.924;2023-04-21T07:39:21;365.55;;;132.48;;
21800;SDS011;11062;51.164;16.924;2023-04-21T07:41:47;404.67;;;211.85;;
21800;SDS011;11062;51.164;16.924;2023-04-21T07:44:13;417.30;;;187.40;;
21800;SDS011;11062;51.164;16.924;2023-04-21T07:46:39;364.33;;;156.43;;
21800;SDS011;11062;51.164;16.924;2023-04-21T07:49:05;342.15;;;139.38;;
21800;SDS011;11062;51.164;16.924;2023-04-21T07:51:31;354.27;;;135.07;;
21800;SDS011;11062;51.164;16.924;2023-04-21T07:53:57;343.73;;;142.13;;
21800;SDS011;11062;51.164;16.924;2023-04-21T07:56:22;371.05;;;155.48;;
21800;SDS011;11062;51.164;16.924;2023-04-21T07:58:48;436.23;;;298.10;;
21800;SDS011;11062;51.164;16.924;2023-04-21T08:01:14;431.77;;;257.45;;
21800;SDS011;11062;51.164;16.924;2023-04-21T08:03:40;433.20;;;276.70;;
21800;SDS011;11062;51.164;16.924;2023-04-21T08:06:06;320.23;;;110.90;;
21800;SDS011;11062;51.164;16.924;2023-04-21T08:08:32;456.15;;;315.33;;
21800;SDS011;11062;51.164;16.924;2023-04-21T08:10:58;436.35;;;292.58;;
21800;SDS011;11062;51.164;16.924;2023-04-21T08:13:23;413.55;;;234.73;;
21800;SDS011;11062;51.164;16.924;2023-04-21T08:15:53;339.65;;;131.05;;
21800;SDS011;11062;51.164;16.924;2023-04-21T08:18:19;385.45;;;204.65;;
21800;SDS011;11062;51.164;16.924;2023-04-21T08:20:48;372.77;;;191.85;;
21800;SDS011;11062;51.164;16.924;2023-04-21T08:23:14;368.48;;;171.93;;
21800;SDS011;11062;51.164;16.924;2023-04-21T08:25:40;341.75;;;154.55;;
21800;SDS011;11062;51.164;16.924;2023-04-21T08:28:06;404.00;;;259.05;;
21800;SDS011;11062;51.164;16.924;2023-04-21T08:30:32;350.92;;;154.57;;
21800;SDS011;11062;51.164;16.924;2023-04-21T08:32:58;423.83;;;253.70;;
21800;SDS011;11062;51.164;16.924;2023-04-21T08:35:24;444.65;;;281.90;;
21800;SDS011;11062;51.164;16.924;2023-04-21T08:37:50;411.98;;;221.98;;
21800;SDS011;11062;51.164;16.924;2023-04-21T08:40:15;393.42;;;198.50;;
21800;SDS011;11062;51.164;16.924;2023-04-21T08:42:43;389.70;;;178.57;;
21800;SDS011;11062;51.164;16.924;2023-04-21T08:45:09;348.08;;;117.32;;
21800;SDS011;11062;51.164;16.924;2023-04-21T08:47:36;339.38;;;114.95;;
21800;SDS011;11062;51.164;16.924;2023-04-21T08:50:05;341.67;;;115.75;;
21800;SDS011;11062;51.164;16.924;2023-04-21T08:52:36;345.27;;;117.90;;
21800;SDS011;11062;51.164;16.924;2023-04-21T08:55:01;322.50;;;112.68;;
21800;SDS011;11062;51.164;16.924;2023-04-21T08:57:27;355.08;;;119.88;;
21800;SDS011;11062;51.164;16.924;2023-04-21T08:59:53;337.63;;;118.55;;
21800;SDS011;11062;51.164;16.924;2023-04-21T09:02:19;466.33;;;336.08;;
21800;SDS011;11062;51.164;16.924;2023-04-21T09:04:47;463.60;;;348.40;;
21800;SDS011;11062;51.164;16.924;2023-04-21T09:07:31;324.95;;;115.45;;
21800;SDS011;11062;51.164;16.924;2023-04-21T09:10:01;529.08;;;431.02;;
21800;SDS011;11062;51.164;16.924;2023-04-21T09:12:27;310.67;;;114.30;;
21800;SDS011;11062;51.164;16.924;2023-04-21T09:14:54;309.88;;;113.82;;
21800;SDS011;11062;51.164;16.924;2023-04-21T09:17:27;311.42;;;114.03;;
21800;SDS011;11062;51.164;16.924;2023-04-21T09:19:56;314.63;;;117.65;;
21800;SDS011;11062;51.164;16.924;2023-04-21T09:22:36;330.23;;;119.43;;
21800;SDS011;11062;51.164;16.924;2023-04-21T09:25:02;324.88;;;116.95;;
21800;SDS011;11062;51.164;16.924;2023-04-21T09:27:28;357.70;;;123.43;;
21800;SDS011;11062;51.164;16.924;2023-04-21T09:29:54;332.90;;;124.15;;
21800;SDS011;11062;51.164;16.924;2023-04-21T09:32:26;318.02;;;119.95;;
21800;SDS011;11062;51.164;16.924;2023-04-21T09:34:52;322.95;;;117.15;;
21800;SDS011;11062;51.164;16.924;2023-04-21T09:37:24;314.50;;;118.28;;
21800;SDS011;11062;51.164;16.924;2023-04-21T09:39:50;327.17;;;121.35;;
21800;SDS011;11062;51.164;16.924;2023-04-21T09:42:17;328.45;;;119.95;;
21800;SDS011;11062;51.164;16.924;2023-04-21T09:44:42;327.27;;;122.50;;
21800;SDS011;11062;51.164;16.924;2023-04-21T09:47:08;350.48;;;135.13;;
21800;SDS011;11062;51.164;16.924;2023-04-21T09:49:36;335.33;;;128.77;;
21800;SDS011;11062;51.164;16.924;2023-04-21T09:52:08;368.17;;;135.95;;
21800;SDS011;11062;51.164;16.924;2023-04-21T09:54:38;399.17;;;183.63;;
21800;SDS011;11062;51.164;16.924;2023-04-21T09:57:09;393.67;;;209.73;;
21800;SDS011;11062;51.164;16.924;2023-04-21T09:59:43;339.30;;;158.32;;
21800;SDS011;11062;51.164;16.924;2023-04-21T10:02:10;362.77;;;195.02;;
21800;SDS011;11062;51.164;16.924;2023-04-21T10:04:49;398.20;;;195.75;;
21800;SDS011;11062;51.164;16.924;2023-04-21T10:07:15;426.50;;;249.85;;
21800;SDS011;11062;51.164;16.924;2023-04-21T10:09:50;400.92;;;239.18;;
21800;SDS011;11062;51.164;16.924;2023-04-21T10:12:20;434.88;;;298.02;;
21800;SDS011;11062;51.164;16.924;2023-04-21T10:14:53;406.38;;;235.85;;
21800;SDS011;11062;51.164;16.924;2023-04-21T10:17:23;358.85;;;196.00;;
21800;SDS011;11062;51.164;16.924;2023-04-21T10:19:51;383.42;;;218.27;;
21800;SDS011;11062;51.164;16.924;2023-04-21T10:22:28;360.90;;;197.95;;
21800;SDS011;11062;51.164;16.924;2023-04-21T10:24:56;403.30;;;234.05;;
21800;SDS011;11062;51.164;16.924;2023-04-21T10:27:33;410.58;;;251.65;;
21800;SDS011;11062;51.164;16.924;2023-04-21T10:30:21;356.85;;;156.23;;
21800;SDS011;11062;51.164;16.924;2023-04-21T10:33:03;376.85;;;167.32;;
21800;SDS011;11062;51.164;16.924;2023-04-21T10:38:41;362.60;;;168.30;;
21800;SDS011;11062;51.164;16.924;2023-04-21T10:41:26;366.35;;;170.25;;
21800;SDS011;11062;51.164;16.924;2023-04-21T10:44:27;367.63;;;191.43;;
21800;SDS011;11062;51.164;16.924;2023-04-21T10:46:46;418.95;;;277.05;;
21800;SDS011;11062;51.164;16.924;2023-04-21T10:49:22;414.95;;;318.00;;
21800;SDS011;11062;51.164;16.924;2023-04-21T10:52:07;471.85;;;388.52;;
21800;SDS011;11062;51.164;16.924;2023-04-21T11:01:22;488.67;;;381.85;;
21800;SDS011;11062;51.164;16.924;2023-04-21T11:03:48;409.67;;;304.67;;
21800;SDS011;11062;51.164;16.924;2023-04-21T11:06:30;351.77;;;249.57;;
21800;SDS011;11062;51.164;16.924;2023-04-21T11:09:00;386.77;;;198.30;;
21800;SDS011;11062;51.164;16.924;2023-04-21T12:17:53;376.40;;;240.32;;
21800;SDS011;11062;51.164;16.924;2023-04-21T12:28:21;386.92;;;252.93;;
21800;SDS011;11062;51.164;16.924;2023-04-21T12:31:48;389.88;;;259.48;;
21800;SDS011;11062;51.164;16.924;2023-04-21T13:23:36;398.55;;;304.40;;
21800;SDS011;11062;51.164;16.924;2023-04-21T14:29:25;66.10;;;37.65;;
21800;SDS011;11062;51.164;16.924;2023-04-21T15:19:35;14.43;;;6.32;;
21800;SDS011;11062;51.164;16.924;2023-04-21T15:22:04;19.63;;;7.03;;
21800;SDS011;11062;51.164;16.924;2023-04-21T15:24:32;32.78;;;7.38;;
21800;SDS011;11062;51.164;16.924;2023-04-21T15:27:01;24.25;;;6.90;;
21800;SDS011;11062;51.164;16.924;2023-04-21T15:29:30;50.95;;;9.55;;
21800;SDS011;11062;51.164;16.924;2023-04-21T15:31:56;21.33;;;6.93;;
21800;SDS011;11062;51.164;16.924;2023-04-21T15:34:22;24.42;;;7.32;;
21800;SDS011;11062;51.164;16.924;2023-04-21T15:36:49;12.90;;;6.80;;
21800;SDS011;11062;51.164;16.924;2023-04-21T15:39:21;17.63;;;7.25;;
21800;SDS011;11062;51.164;16.924;2023-04-21T15:41:47;14.48;;;6.72;;
21800;SDS011;11062;51.164;16.924;2023-04-21T18:02:27;21.25;;;9.32;;
21800;SDS011;11062;51.164;16.924;2023-04-21T18:05:23;18.77;;;8.95;;
21800;SDS011;11062;51.164;16.924;2023-04-21T18:08:57;29.00;;;9.20;;
21800;SDS011;11062;51.164;16.924;2023-04-21T18:16:11;29.02;;;10.68;;
21800;SDS011;11062;51.164;16.924;2023-04-21T18:22:28;23.10;;;8.70;;
21800;SDS011;11062;51.164;16.924;2023-04-21T18:32:57;21.80;;;7.15;;
21800;SDS011;11062;51.164;16.924;2023-04-21T18:36:27;41.00;;;9.65;;
21800;SDS011;11062;51.164;16.924;2023-04-21T18:39:48;19.75;;;7.22;;
21800;SDS011;11062;51.164;16.924;2023-04-21T18:49:47;24.45;;;6.80;;
21800;SDS011;11062;51.164;16.924;2023-04-21T18:52:15;21.83;;;6.45;;
21800;SDS011;11062;51.164;16.924;2023-04-21T18:54:41;32.42;;;6.93;;
21800;SDS011;11062;51.164;16.924;2023-04-21T18:57:07;20.67;;;6.50;;
21800;SDS011;11062;51.164;16.924;2023-04-21T18:59:36;19.40;;;6.22;;
21800;SDS011;11062;51.164;16.924;2023-04-21T19:02:08;14.60;;;6.10;;
21800;SDS011;11062;51.164;16.924;2023-04-21T19:04:40;30.90;;;8.23;;
21800;SDS011;11062;51.164;16.924;2023-04-21T19:07:08;25.85;;;7.28;;
21800;SDS011;11062;51.164;16.924;2023-04-21T19:09:35;37.63;;;8.45;;
21800;SDS011;11062;51.164;16.924;2023-04-21T19:12:05;14.65;;;6.47;;
21800;SDS011;11062;51.164;16.924;2023-04-21T19:14:34;41.25;;;8.27;;
21800;SDS011;11062;51.164;16.924;2023-04-21T19:17:03;31.65;;;7.45;;
21800;SDS011;11062;51.164;16.924;2023-04-21T19:19:29;25.10;;;7.20;;
21800;SDS011;11062;51.164;16.924;2023-04-21T19:21:55;59.55;;;9.00;;
21800;SDS011;11062;51.164;16.924;2023-04-21T19:24:23;32.15;;;8.15;;
21800;SDS011;11062;51.164;16.924;2023-04-21T19:26:50;34.50;;;7.97;;
21800;SDS011;11062;51.164;16.924;2023-04-21T19:29:16;19.48;;;7.45;;
21800;SDS011;11062;51.164;16.924;2023-04-21T19:31:45;17.55;;;6.50;;
21800;SDS011;11062;51.164;16.924;2023-04-21T19:34:11;25.17;;;7.35;;
21800;SDS011;11062;51.164;16.924;2023-04-21T19:36:37;17.38;;;6.97;;
21800;SDS011;11062;51.164;16.924;2023-04-21T19:39:03;32.35;;;8.57;;
21800;SDS011;11062;51.164;16.924;2023-04-21T19:41:33;21.00;;;7.10;;
21800;SDS011;11062;51.164;16.924;2023-04-21T19:44:00;26.15;;;8.20;;
21800;SDS011;11062;51.164;16.924;2023-04-21T19:46:26;20.08;;;7.38;;
21800;SDS011;11062;51.164;16.924;2023-04-21T19:48:52;21.40;;;8.23;;
21800;SDS011;11062;51.164;16.924;2023-04-21T19:51:18;26.42;;;8.00;;
21800;SDS011;11062;51.164;16.924;2023-04-21T19:53:45;22.15;;;7.78;;
21800;SDS011;11062;51.164;16.924;2023-04-21T19:56:14;23.33;;;7.90;;
21800;SDS011;11062;51.164;16.924;2023-04-21T19:58:43;21.10;;;7.45;;
21800;SDS011;11062;51.164;16.924;2023-04-21T20:01:09;49.92;;;10.77;;
21800;SDS011;11062;51.164;16.924;2023-04-21T20:03:41;29.30;;;7.97;;
21800;SDS011;11062;51.164;16.924;2023-04-21T20:06:11;25.38;;;8.02;;
21800;SDS011;11062;51.164;16.924;2023-04-21T20:08:45;26.63;;;7.72;;
21800;SDS011;11062;51.164;16.924;2023-04-21T20:11:11;20.00;;;7.57;;
21800;SDS011;11062;51.164;16.924;2023-04-21T20:13:37;20.30;;;8.07;;
21800;SDS011;11062;51.164;16.924;2023-04-21T20:16:02;22.98;;;8.00;;
21800;SDS011;11062;51.164;16.924;2023-04-21T20:18:31;36.55;;;9.05;;
21800;SDS011;11062;51.164;16.924;2023-04-21T20:21:00;18.98;;;6.65;;
21800;SDS011;11062;51.164;16.924;2023-04-21T20:37:31;102.40;;;13.20;;
21800;SDS011;11062;51.164;16.924;2023-04-21T21:17:44;298.55;;;101.18;;
21800;SDS011;11062;51.164;16.924;2023-04-21T21:20:10;321.20;;;112.82;;
21800;SDS011;11062;51.164;16.924;2023-04-21T21:22:39;321.95;;;111.22;;
21800;SDS011;11062;51.164;16.924;2023-04-21T21:25:07;301.80;;;103.13;;
21800;SDS011;11062;51.164;16.924;2023-04-21T21:27:33;295.50;;;104.93;;
21800;SDS011;11062;51.164;16.924;2023-04-21T21:29:59;290.83;;;100.53;;
21800;SDS011;11062;51.164;16.924;2023-04-21T21:32:26;315.55;;;106.10;;
21800;SDS011;11062;51.164;16.924;2023-04-21T21:34:52;299.02;;;102.43;;